Time;durP1;ratioP1;P1;durP2;ratioP2;P2;SDS_P1;SDS_P2;PMS_P1;PMS_P2;Temp;Humidity;BMP_temperature;BMP_pressure;BME280_temperature;BME280_humidity;BME280_pressure;Samples;Min_cycle;Max_cycle;Signal;HPM_P1;HPM_P2
2022/08/31 00:06:07;;;;;;;6.88;5.57;;;;;;;17.60;78.91;96228.25;10325026;28;98533;-61
2022/08/31 00:11:13;;;;;;;10.77;7.50;;;;;;;17.60;78.81;96226.41;10328360;28;98288;-62
2022/08/31 00:16:16;;;;;;;6.93;6.18;;;;;;;17.59;78.26;96222.13;10318996;28;97323;-61
2022/08/31 00:21:22;;;;;;;11.75;9.50;;;;;;;17.52;78.80;96208.06;10318184;28;98598;-61
2022/08/31 00:26:26;;;;;;;10.98;8.15;;;;;;;17.52;78.75;96216.78;10330756;28;97151;-61
2022/08/31 00:31:29;;;;;;;7.75;6.38;;;;;;;17.45;79.36;96217.75;10312483;28;98940;-61
2022/08/31 00:36:32;;;;;;;10.85;4.80;;;;;;;17.38;79.19;96218.50;10323878;28;98497;-61
2022/08/31 00:41:38;;;;;;;8.57;5.43;;;;;;;17.36;79.31;96217.09;10314279;28;98187;-61
2022/08/31 00:46:43;;;;;;;8.80;5.75;;;;;;;17.42;79.01;96218.16;10324809;28;98335;-61
2022/08/31 00:51:51;;;;;;;5.82;4.70;;;;;;;17.41;79.34;96217.34;10324391;28;97860;-61
2022/08/31 00:56:56;;;;;;;7.45;4.97;;;;;;;17.42;79.51;96218.16;10312482;28;96897;-61
2022/08/31 01:01:59;;;;;;;7.32;4.78;;;;;;;17.43;79.94;96220.59;10316680;28;98113;-61
2022/08/31 01:07:06;;;;;;;6.28;4.65;;;;;;;17.47;79.41;96218.38;10321812;28;98767;-61
2022/08/31 01:12:12;;;;;;;8.38;4.97;;;;;;;17.38;79.51;96229.06;10325706;28;96981;-62
2022/08/31 01:17:16;;;;;;;8.35;5.63;;;;;;;17.30;79.98;96221.31;10325929;28;99202;-61
2022/08/31 01:22:26;;;;;;;9.20;5.28;;;;;;;17.24;80.36;96232.63;10320562;28;98494;-61
2022/08/31 01:27:35;;;;;;;7.05;5.05;;;;;;;17.12;80.59;96226.22;10319197;28;98603;-61
2022/08/31 01:32:38;;;;;;;6.50;4.70;;;;;;;17.15;80.14;96225.84;10316207;28;97145;-61
2022/08/31 01:37:41;;;;;;;7.72;5.07;;;;;;;17.18;79.77;96233.41;10326855;28;98416;-61
2022/08/31 01:42:46;;;;;;;8.23;5.18;;;;;;;17.19;79.91;96225.25;10319721;28;97555;-62
2022/08/31 01:47:49;;;;;;;9.02;5.20;;;;;;;17.15;80.20;96215.28;10327250;28;96870;-61
2022/08/31 01:52:51;;;;;;;8.07;6.68;;;;;;;17.06;80.45;96229.59;10318301;28;98247;-61
2022/08/31 01:57:56;;;;;;;11.10;7.55;;;;;;;17.08;80.45;96224.97;10315755;28;98617;-61
2022/08/31 02:03:02;;;;;;;10.27;6.50;;;;;;;17.07;80.43;96225.97;10313721;28;99224;-61
2022/08/31 02:08:07;;;;;;;7.65;5.25;;;;;;;17.08;80.01;96228.41;10326629;28;98510;-62
2022/08/31 02:13:11;;;;;;;7.13;4.45;;;;;;;17.14;79.94;96221.56;10319305;28;98591;-61
2022/08/31 02:18:14;;;;;;;;;;;;;;;17.13;78.87;96230.50;10328632;28;97695;-61
2022/08/31 02:23:20;;;;;;;9.30;5.63;;;;;;;17.03;79.04;96219.44;10325847;28;97704;-62
2022/08/31 02:28:24;;;;;;;9.73;6.47;;;;;;;16.89;80.16;96224.59;10327042;28;97776;-61
2022/08/31 02:33:27;;;;;;;9.63;7.10;;;;;;;16.80;80.45;96225.72;10319393;28;99357;-61
2022/08/31 02:38:34;;;;;;;8.30;6.72;;;;;;;16.81;80.65;96224.69;10326073;28;98381;-61
2022/08/31 02:43:38;;;;;;;8.13;6.32;;;;;;;16.77;80.65;96226.09;10326874;28;98539;-61
2022/08/31 02:48:41;;;;;;;8.57;5.38;;;;;;;16.81;80.51;96222.06;10331095;28;97472;-61
2022/08/31 02:53:44;;;;;;;10.38;5.07;;;;;;;16.86;80.12;96224.16;10333339;28;96876;-61
2022/08/31 02:58:53;;;;;;;7.88;4.38;;;;;;;16.93;79.64;96225.81;10320426;28;98747;-61
2022/08/31 03:03:57;;;;;;;10.27;8.00;;;;;;;16.83;80.34;96225.31;10323416;28;97576;-61
2022/08/31 03:09:00;;;;;;;8.82;6.93;;;;;;;16.82;80.46;96223.69;10330809;28;98425;-61
2022/08/31 03:14:04;;;;;;;9.07;6.13;;;;;;;16.89;80.29;96223.78;10323042;28;98340;-61
2022/08/31 03:19:07;;;;;;;8.70;5.72;;;;;;;16.93;80.68;96225.03;10313632;28;98706;-61
2022/08/31 03:24:10;;;;;;;11.27;6.10;;;;;;;16.90;80.52;96223.59;10328116;28;97793;-61
2022/08/31 03:29:14;;;;;;;8.98;4.95;;;;;;;16.86;81.00;96230.22;10322242;28;97652;-61
2022/08/31 03:34:17;;;;;;;5.87;4.03;;;;;;;16.91;80.16;96225.22;10316724;28;97807;-61
2022/08/31 03:39:20;;;;;;;6.50;4.60;;;;;;;16.92;79.33;96234.75;10319047;28;98247;-61
2022/08/31 03:44:24;;;;;;;7.53;5.05;;;;;;;16.77;80.67;96231.34;10317686;28;98309;-61
2022/08/31 03:49:27;;;;;;;8.00;5.20;;;;;;;16.78;80.26;96233.81;10320832;28;97205;-61
2022/08/31 03:54:30;;;;;;;6.03;4.30;;;;;;;16.81;80.00;96227.34;10346132;28;97178;-61
2022/08/31 03:59:34;;;;;;;11.32;7.75;;;;;;;16.86;80.29;96226.78;10323549;28;99255;-62
2022/08/31 04:04:37;;;;;;;9.27;5.63;;;;;;;16.81;80.13;96232.59;10319404;28;97853;-62
2022/08/31 04:09:40;;;;;;;9.18;5.30;;;;;;;16.76;80.23;96227.91;10325383;28;97933;-61
2022/08/31 04:14:44;;;;;;;6.00;4.72;;;;;;;16.75;80.01;96228.09;10325843;28;96850;-60
2022/08/31 04:19:47;;;;;;;5.65;4.00;;;;;;;16.76;80.06;96219.16;10324095;28;98995;-62
2022/08/31 04:24:49;;;;;;;6.82;4.80;;;;;;;16.74;79.69;96221.13;10323815;28;97147;-62
2022/08/31 04:29:53;;;;;;;5.63;4.47;;;;;;;16.73;79.81;96230.06;10323975;28;97930;-61
2022/08/31 04:34:56;;;;;;;6.50;4.83;;;;;;;16.63;80.35;96235.63;10321121;28;96913;-61
2022/08/31 04:40:00;;;;;;;11.00;5.60;;;;;;;16.49;80.95;96234.66;10316744;28;98660;-61
2022/08/31 04:45:06;;;;;;;6.83;5.20;;;;;;;16.44;81.21;96237.03;10325358;28;96945;-62
2022/08/31 04:50:10;;;;;;;8.93;5.55;;;;;;;16.44;81.23;96231.75;10319271;28;96791;-61
2022/08/31 04:55:13;;;;;;;12.33;5.90;;;;;;;16.45;81.19;96254.50;10325252;28;96931;-61
2022/08/31 05:00:17;;;;;;;11.25;8.02;;;;;;;16.45;81.42;96249.22;10337755;28;96735;-61
2022/08/31 05:05:20;;;;;;;8.15;6.05;;;;;;;16.48;81.32;96248.84;10339205;28;96798;-61
2022/08/31 05:10:23;;;;;;;7.15;6.05;;;;;;;16.55;80.97;96247.09;10319367;28;96916;-61
2022/08/31 05:15:27;;;;;;;10.48;6.30;;;;;;;16.54;81.04;96250.75;10325117;28;98572;-61
2022/08/31 05:20:30;;;;;;;7.97;6.37;;;;;;;16.55;81.19;96255.00;10320192;28;97697;-61
2022/08/31 05:25:33;;;;;;;6.35;5.75;;;;;;;16.55;81.06;96260.28;10308694;28;98692;-61
2022/08/31 05:30:37;;;;;;;8.48;6.07;;;;;;;16.47;81.41;96251.66;10318320;28;98423;-61
2022/08/31 05:35:40;;;;;;;10.75;6.93;;;;;;;16.39;81.63;96257.88;10313013;28;98592;-61
2022/08/31 05:40:43;;;;;;;10.38;7.90;;;;;;;16.20;82.22;96252.13;10309036;28;96946;-61
2022/08/31 05:45:47;;;;;;;10.93;8.13;;;;;;;16.25;82.08;96256.88;10329619;28;96860;-61
2022/08/31 05:50:50;;;;;;;11.20;8.03;;;;;;;16.19;82.23;96250.53;10307690;28;97789;-61
2022/08/31 05:55:59;;;;;;;11.10;8.13;;;;;;;16.20;82.43;96265.31;10333472;28;98857;-62
2022/08/31 06:01:03;;;;;;;12.20;8.48;;;;;;;16.19;82.50;96260.22;10333386;28;96871;-61
2022/08/31 06:06:08;;;;;;;;;;;;;;;16.24;82.09;96268.41;10341806;28;97819;-61
2022/08/31 06:11:16;;;;;;;8.52;7.07;;;;;;;16.32;82.29;96273.59;10334801;28;100790;-61
2022/08/31 06:16:21;;;;;;;8.30;7.13;;;;;;;16.41;82.55;96275.13;10311058;28;98499;-61
2022/08/31 06:21:25;;;;;;;;;;;;;;;16.50;82.10;96280.31;10316587;28;99108;-61
2022/08/31 06:26:29;;;;;;;9.40;7.07;;;;;;;16.51;82.28;96266.94;10324140;28;99340;-61
2022/08/31 06:31:36;;;;;;;8.27;7.00;;;;;;;16.55;82.63;96260.28;10322741;28;98122;-61
2022/08/31 06:36:39;;;;;;;9.77;7.80;;;;;;;16.61;82.42;96254.28;10324748;28;98769;-62
2022/08/31 06:41:44;;;;;;;;;;;;;;;16.68;82.21;96253.56;10344197;28;97873;-61
2022/08/31 06:46:48;;;;;;;8.18;7.35;;;;;;;16.72;82.55;96260.88;10333966;28;98129;-61
2022/08/31 06:51:51;;;;;;;7.57;6.78;;;;;;;16.81;81.99;96264.25;10338622;28;97117;-61
2022/08/31 06:56:54;;;;;;;7.72;6.57;;;;;;;16.90;81.72;96257.91;10357576;28;97009;-61
2022/08/31 07:01:59;;;;;;;7.63;6.40;;;;;;;16.98;82.06;96255.09;10348887;28;97168;-61
2022/08/31 07:07:04;;;;;;;7.13;6.43;;;;;;;17.10;81.75;96247.53;10381079;28;96703;-61
2022/08/31 07:12:07;;;;;;;;;;;;;;;17.22;81.23;96244.38;10347728;28;96774;-61
2022/08/31 07:17:11;;;;;;;8.35;6.68;;;;;;;17.26;81.78;96240.34;10342213;28;96758;-61
2022/08/31 07:22:14;;;;;;;8.77;6.70;;;;;;;17.37;81.21;96245.94;10331872;28;96987;-61
2022/08/31 07:27:17;;;;;;;11.60;6.72;;;;;;;17.48;81.10;96249.09;10339070;28;98922;-61
2022/08/31 07:32:21;;;;;;;7.00;6.28;;;;;;;17.57;80.73;96248.75;10315186;28;96822;-61
2022/08/31 07:42:45;;;;;;;7.15;5.70;;;;;;;17.82;79.98;96240.41;10341180;28;96657;-61
2022/08/31 07:47:50;;;;;;;6.93;5.60;;;;;;;17.87;79.84;96226.63;10337394;28;97267;-61
2022/08/31 07:52:54;;;;;;;;;;;;;;;17.99;79.19;96240.13;10339854;28;96716;-61
2022/08/31 07:57:57;;;;;;;5.57;4.60;;;;;;;18.00;78.64;96239.13;10330915;28;96722;-62
2022/08/31 08:03:05;;;;;;;6.50;4.53;;;;;;;18.05;77.72;96244.63;10299411;28;96726;-61
2022/08/31 08:08:11;;;;;;;5.95;4.30;;;;;;;18.09;78.67;96236.09;10298926;28;96713;-61
2022/08/31 08:13:18;;;;;;;5.35;3.83;;;;;;;18.18;76.82;96243.88;10298384;28;96689;-62
2022/08/31 08:18:22;;;;;;;4.40;4.00;;;;;;;18.30;77.17;96242.31;10298965;28;96761;-61
2022/08/31 08:23:26;;;;;;;5.43;4.07;;;;;;;18.44;77.40;96248.50;10317615;28;96685;-62
2022/08/31 08:28:31;;;;;;;4.57;3.42;;;;;;;18.47;76.60;96243.63;10339595;28;97479;-62
2022/08/31 08:33:45;;;;;;;7.13;4.50;;;;;;;18.61;76.53;96248.97;10339345;28;96637;-61
2022/08/31 08:38:50;;;;;;;6.03;4.38;;;;;;;18.77;75.66;96238.00;10339329;28;96859;-61
2022/08/31 08:43:55;;;;;;;4.32;3.75;;;;;;;18.83;75.14;96247.81;10334983;28;98318;-62
2022/08/31 08:49:09;;;;;;;4.35;3.65;;;;;;;18.90;75.13;96244.38;10339258;28;97441;-61
2022/08/31 08:54:14;;;;;;;4.05;3.38;;;;;;;18.98;73.96;96246.88;10312973;28;96890;-61
2022/08/31 08:59:17;;;;;;;4.85;3.80;;;;;;;19.09;74.03;96235.69;10297595;28;97172;-61
2022/08/31 09:04:40;;;;;;;5.18;4.13;;;;;;;19.24;72.90;96233.69;10299833;28;96943;-61
2022/08/31 09:09:48;;;;;;;4.97;3.50;;;;;;;19.43;72.27;96226.72;10297359;28;96757;-61
2022/08/31 09:15:35;;;;;;;3.85;2.83;;;;;;;19.53;71.48;96220.25;10295958;28;96685;-61
2022/08/31 09:20:40;;;;;;;4.10;2.60;;;;;;;19.56;70.08;96220.63;10297281;28;96769;-61
2022/08/31 09:25:51;;;;;;;4.70;2.90;;;;;;;19.72;70.28;96210.63;10336567;28;96703;-61
2022/08/31 09:30:54;;;;;;;4.28;3.40;;;;;;;19.93;69.64;96215.72;10334697;28;96760;-61
2022/08/31 09:41:34;;;;;;;2.92;2.58;;;;;;;20.33;68.35;96199.69;10416110;28;96519;-61
2022/08/31 09:46:38;;;;;;;3.55;2.97;;;;;;;20.45;68.32;96191.88;10401671;28;97783;-61
2022/08/31 09:51:40;;;;;;;3.63;2.70;;;;;;;20.52;67.79;96194.53;10379393;28;96890;-61
2022/08/31 09:56:57;;;;;;;4.40;2.45;;;;;;;20.55;66.46;96180.84;10413582;28;97002;-61
2022/08/31 10:02:01;;;;;;;4.57;2.60;;;;;;;20.71;66.32;96179.53;10414276;28;96874;-61
2022/08/31 10:07:29;;;;;;;3.05;2.40;;;;;;;20.83;64.90;96177.03;10414147;27;96628;-61
2022/08/31 10:12:38;;;;;;;;;;;;;;;20.99;65.44;96173.84;10413781;28;96807;-61
2022/08/31 10:17:47;;;;;;;3.88;2.35;;;;;;;20.92;63.52;96155.31;10410553;28;96784;-62
2022/08/31 10:22:56;;;;;;;2.72;2.42;;;;;;;21.08;64.15;96159.28;10390371;28;96659;-61
2022/08/31 10:28:07;;;;;;;5.20;3.05;;;;;;;21.36;63.37;96157.22;10413140;28;97134;-61
2022/08/31 10:33:14;;;;;;;3.10;2.80;;;;;;;21.60;62.97;96150.25;10413082;28;96803;-61
2022/08/31 10:38:24;;;;;;;2.83;2.38;;;;;;;21.81;62.06;96143.72;10412269;28;96722;-61
2022/08/31 10:43:33;;;;;;;2.63;2.30;;;;;;;22.06;60.46;96139.16;10412736;28;96737;-62
2022/08/31 10:48:39;;;;;;;3.08;2.28;;;;;;;22.22;58.38;96132.41;10408199;28;96726;-61
2022/08/31 10:53:52;;;;;;;2.97;2.13;;;;;;;22.34;57.75;96143.13;10358356;28;96756;-61
2022/08/31 10:59:12;;;;;;;2.85;2.00;;;;;;;22.50;57.37;96133.72;10343563;28;96658;-61
2022/08/31 11:04:38;;;;;;;2.88;2.25;;;;;;;22.75;55.61;96125.59;10342942;28;96735;-61
2022/08/31 11:09:48;;;;;;;2.40;2.20;;;;;;;23.08;55.76;96134.94;10370863;28;96871;-61
2022/08/31 11:15:28;;;;;;;2.63;2.13;;;;;;;23.37;55.05;96132.44;10384050;28;96660;-61
2022/08/31 11:20:50;;;;;;;2.60;2.17;;;;;;;23.60;54.93;96138.81;10382903;28;96756;-61
2022/08/31 11:26:44;;;;;;;3.35;2.20;;;;;;;24.11;53.45;96126.59;10383506;28;96600;-62
2022/08/31 11:31:49;;;;;;;2.88;1.77;;;;;;;24.54;51.22;96129.81;10295929;28;96848;-61
2022/08/31 11:36:54;;;;;;;3.22;2.13;;;;;;;24.75;50.76;96130.97;10295449;28;96881;-61
2022/08/31 11:41:57;;;;;;;2.85;2.33;;;;;;;25.00;51.67;96133.31;10295621;28;97474;-61
2022/08/31 11:47:07;;;;;;;2.78;2.40;;;;;;;25.10;51.82;96122.81;10295738;28;97029;-62
2022/08/31 11:52:37;;;;;;;4.30;2.70;;;;;;;25.15;51.04;96112.19;10294855;28;96773;-62
2022/08/31 11:58:32;;;;;;;2.72;2.33;;;;;;;25.05;51.02;96109.38;10288732;28;96999;-61
2022/08/31 12:03:52;;;;;;;3.90;2.40;;;;;;;25.03;50.53;96114.16;10375463;28;96699;-62
2022/08/31 12:09:17;;;;;;;3.15;2.85;;;;;;;24.72;50.82;96094.88;10382229;28;96647;-61
2022/08/31 12:14:32;;;;;;;3.13;2.60;;;;;;;24.28;51.87;96089.31;10382283;28;96936;-62
2022/08/31 12:19:58;;;;;;;3.10;2.58;;;;;;;24.38;51.67;96089.47;10381556;28;96631;-61
2022/08/31 12:25:13;;;;;;;3.30;2.40;;;;;;;24.47;50.81;96077.38;10381153;28;96951;-61
2022/08/31 12:30:19;;;;;;;3.65;2.53;;;;;;;24.48;50.90;96081.66;10381827;28;97047;-61
2022/08/31 12:35:25;;;;;;;3.88;2.65;;;;;;;24.56;52.67;96074.28;10380926;28;96913;-61
2022/08/31 12:40:29;;;;;;;2.42;2.22;;;;;;;24.74;51.20;96071.41;10380829;28;96794;-62
2022/08/31 12:46:07;;;;;;;3.53;2.50;;;;;;;24.94;49.38;96087.00;10346091;28;97198;-61
2022/08/31 12:51:20;;;;;;;3.05;2.42;;;;;;;25.23;50.15;96070.88;10347567;28;97036;-61
2022/08/31 12:56:30;;;;;;;2.65;2.45;;;;;;;25.50;48.78;96062.97;10380424;28;96731;-62
2022/08/31 13:01:41;;;;;;;5.45;2.53;;;;;;;25.17;49.97;96063.84;10380578;28;96680;-62
2022/08/31 13:06:47;;;;;;;2.88;2.63;;;;;;;25.09;48.85;96050.88;10379412;28;96722;-61
2022/08/31 13:11:52;;;;;;;2.83;2.60;;;;;;;24.85;49.12;96056.38;10357912;28;97514;-62
2022/08/31 13:17:03;;;;;;;3.30;2.97;;;;;;;24.81;47.90;96040.03;10380211;28;96621;-61
2022/08/31 13:22:15;;;;;;;3.13;2.83;;;;;;;25.00;48.29;96043.28;10363135;28;97003;-61
2022/08/31 13:27:20;;;;;;;3.67;2.40;;;;;;;25.14;47.29;96025.03;10338646;28;96798;-61
2022/08/31 13:32:32;;;;;;;2.45;2.25;;;;;;;25.32;46.48;96025.81;10338242;28;96956;-61
2022/08/31 13:37:39;;;;;;;2.88;2.67;;;;;;;25.42;45.94;96039.31;10357318;28;96873;-61
2022/08/31 13:42:44;;;;;;;3.08;2.25;;;;;;;25.60;46.26;96036.41;10379226;28;97865;-61
2022/08/31 13:47:53;;;;;;;2.90;2.60;;;;;;;25.37;46.71;96026.72;10379015;28;96730;-62
2022/08/31 13:53:02;;;;;;;2.80;2.50;;;;;;;25.59;46.01;96015.25;10353161;28;97229;-61
2022/08/31 13:58:28;;;;;;;2.80;2.50;;;;;;;25.92;45.83;96018.84;10338439;28;96789;-61
2022/08/31 14:03:33;;;;;;;3.05;2.10;;;;;;;25.77;45.19;96020.28;10337636;28;96723;-61
2022/08/31 14:08:38;;;;;;;3.35;2.65;;;;;;;25.35;45.76;96022.66;10337856;28;96893;-62
2022/08/31 14:13:47;;;;;;;3.72;2.70;;;;;;;24.74;46.35;95996.63;10368607;28;96772;-61
2022/08/31 14:18:54;;;;;;;2.40;2.20;;;;;;;24.50;46.52;96006.66;10378424;28;96738;-61
2022/08/31 14:24:02;;;;;;;2.83;2.63;;;;;;;24.29;46.84;96011.63;10378617;28;98527;-61
2022/08/31 14:29:09;;;;;;;2.85;2.55;;;;;;;24.17;46.81;95997.53;10385818;28;96697;-61
2022/08/31 14:34:25;;;;;;;2.50;2.28;;;;;;;24.35;47.33;95993.03;10385511;28;97174;-61
2022/08/31 14:39:31;;;;;;;3.40;2.47;;;;;;;24.54;46.98;95981.09;10384774;28;96783;-61
2022/08/31 14:44:38;;;;;;;2.83;2.53;;;;;;;24.69;46.30;95975.97;10384561;28;96761;-61
2022/08/31 14:49:44;;;;;;;3.92;2.50;;;;;;;24.66;46.83;95987.16;10384029;28;97177;-61
2022/08/31 14:54:48;;;;;;;3.55;2.17;;;;;;;25.25;45.42;95980.53;10343220;28;96764;-61
2022/08/31 14:59:55;;;;;;;2.78;1.90;;;;;;;25.97;43.79;95992.13;10342824;28;96947;-61
2022/08/31 15:05:05;;;;;;;2.75;1.98;;;;;;;26.51;43.03;95984.09;10343004;28;97515;-61
2022/08/31 15:10:11;;;;;;;3.85;2.05;;;;;;;26.90;42.10;95977.69;10342997;28;96666;-61
2022/08/31 15:15:19;;;;;;;5.60;2.10;;;;;;;27.40;41.24;95976.41;10342708;28;96789;-62
2022/08/31 15:20:22;;;;;;;2.30;2.10;;;;;;;27.92;40.54;95972.06;10348342;28;96761;-61
2022/08/31 15:25:27;;;;;;;2.20;1.93;;;;;;;28.18;40.09;95974.78;10383727;28;97445;-61
2022/08/31 15:30:32;;;;;;;2.58;1.90;;;;;;;28.05;39.27;95981.50;10383429;28;96897;-61
2022/08/31 15:35:40;;;;;;;2.10;1.63;;;;;;;28.12;39.12;95981.25;10383402;28;96774;-61
2022/08/31 15:40:45;;;;;;;2.17;1.92;;;;;;;27.95;38.26;95976.09;10382784;28;96690;-62
2022/08/31 15:45:48;;;;;;;2.60;1.85;;;;;;;27.94;38.37;95971.78;10382571;28;96694;-61
2022/08/31 15:50:58;;;;;;;2.57;1.80;;;;;;;28.01;38.54;95972.34;10353877;28;97635;-61
2022/08/31 15:56:05;;;;;;;1.95;1.65;;;;;;;28.27;39.12;95969.72;10366461;28;97756;-61
2022/08/31 16:01:12;;;;;;;2.10;1.70;;;;;;;28.64;38.99;95965.97;10361561;28;98650;-60
2022/08/31 16:06:15;;;;;;;2.05;1.85;;;;;;;28.59;39.13;95970.28;10356947;28;98441;-60
2022/08/31 16:11:19;;;;;;;2.47;1.77;;;;;;;28.34;39.15;95959.53;10351137;28;99322;-60
2022/08/31 16:16:22;;;;;;;2.85;1.63;;;;;;;28.51;39.43;95970.03;10352518;28;98476;-60
2022/08/31 16:21:27;;;;;;;1.83;1.60;;;;;;;28.22;39.57;95971.31;10367019;28;96852;-60
2022/08/31 16:26:34;;;;;;;2.17;1.80;;;;;;;27.14;40.76;95980.03;10359543;28;97574;-60
2022/08/31 16:31:37;;;;;;;2.22;2.03;;;;;;;26.69;41.69;95988.28;10362686;28;98896;-59
2022/08/31 16:36:41;;;;;;;2.00;1.63;;;;;;;26.09;42.35;95995.47;10342144;28;97135;-60
2022/08/31 16:41:46;;;;;;;3.25;2.28;;;;;;;25.46;43.26;95973.59;10364342;28;97389;-58
2022/08/31 16:46:48;;;;;;;2.78;2.47;;;;;;;25.30;43.35;95977.13;10369661;28;97700;-59
2022/08/31 16:51:51;;;;;;;2.13;1.70;;;;;;;25.67;42.93;95982.72;10356157;28;97596;-62
2022/08/31 16:56:56;;;;;;;3.27;1.73;;;;;;;26.35;41.73;95983.16;10370904;28;97843;-59
2022/08/31 17:01:59;;;;;;;2.60;1.60;;;;;;;26.47;41.19;95992.91;10355933;28;98537;-60
2022/08/31 17:14:45;;;;;;;2.30;1.90;;;;;;;24.72;43.69;96001.41;10429935;27;97612;-61
2022/08/31 17:19:50;;;;;;;2.63;2.10;;;;;;;24.07;44.73;96011.53;10401683;27;98475;-64
2022/08/31 17:24:56;;;;;;;1.88;1.77;;;;;;;23.74;44.73;96010.34;10406760;27;98591;-61
2022/08/31 17:30:04;;;;;;;2.47;1.70;;;;;;;23.46;45.61;96018.28;10397054;27;96859;-61
2022/08/31 17:35:08;;;;;;;2.05;1.73;;;;;;;23.23;46.57;96014.56;10402320;27;99021;-61
2022/08/31 17:40:12;;;;;;;2.50;1.90;;;;;;;22.94;46.57;96011.81;10392358;28;98483;-61
2022/08/31 17:45:20;;;;;;;1.83;1.60;;;;;;;22.69;47.27;96030.66;10398671;27;98016;-62
2022/08/31 17:50:22;;;;;;;4.10;1.75;;;;;;;22.48;47.85;96034.66;10391635;28;96887;-61
2022/08/31 17:55:25;;;;;;;3.15;1.90;;;;;;;22.38;48.14;96039.69;10411954;27;97030;-61
2022/08/31 18:00:31;;;;;;;3.70;2.10;;;;;;;22.10;48.85;96027.78;10411365;27;96728;-62
2022/08/31 18:05:34;;;;;;;3.28;2.10;;;;;;;21.91;49.57;96039.50;10411352;27;96680;-62
2022/08/31 18:10:37;;;;;;;2.30;1.90;;;;;;;21.65;49.84;96042.25;10405887;27;97233;-61
2022/08/31 18:15:42;;;;;;;2.20;2.00;;;;;;;21.54;50.44;96050.16;10403263;27;98096;-62
2022/08/31 18:20:45;;;;;;;2.33;1.73;;;;;;;21.43;50.60;96043.72;10399344;27;97305;-61
2022/08/31 18:25:48;;;;;;;3.78;2.10;;;;;;;21.39;50.81;96047.84;10392926;27;96737;-62
2022/08/31 18:30:52;;;;;;;3.83;2.20;;;;;;;21.28;51.11;96044.09;10389019;28;97216;-61
2022/08/31 18:35:55;;;;;;;3.45;2.10;;;;;;;21.12;51.47;96048.94;10383180;28;97134;-62
2022/08/31 18:46:25;;;;;;;2.50;2.10;;;;;;;20.83;52.13;96054.91;10379399;28;97839;-61
2022/08/31 18:51:28;;;;;;;2.50;2.17;;;;;;;20.73;52.42;96064.13;10376525;28;97086;-61
2022/08/31 18:56:32;;;;;;;2.67;1.90;;;;;;;20.57;52.57;96062.81;10379410;28;96849;-61
2022/08/31 19:01:36;;;;;;;2.38;2.08;;;;;;;20.45;52.39;96064.53;10379588;28;97042;-62
2022/08/31 19:06:41;;;;;;;2.92;2.30;;;;;;;20.35;53.15;96067.63;10363065;28;98315;-62
2022/08/31 19:11:48;;;;;;;;;;;;;;;20.26;53.09;96054.88;10366631;28;98658;-62
2022/08/31 19:16:54;;;;;;;2.80;2.13;;;;;;;20.20;53.29;96067.16;10364470;28;97491;-62
2022/08/31 19:22:05;;;;;;;4.63;2.47;;;;;;;20.18;52.89;96072.66;10369625;28;98126;-62
2022/08/31 19:27:09;;;;;;;2.65;2.17;;;;;;;20.17;53.30;96080.81;10363164;28;96919;-62
2022/08/31 19:32:13;;;;;;;3.37;2.00;;;;;;;20.12;53.30;96078.78;10358332;28;98707;-62
2022/08/31 19:37:16;;;;;;;3.00;2.13;;;;;;;20.06;53.22;96084.97;10376897;28;98193;-62
2022/08/31 19:42:20;;;;;;;4.20;2.70;;;;;;;20.03;53.58;96092.53;10382219;28;97144;-64
2022/08/31 19:47:45;;;;;;;5.28;4.65;;;;;;;20.05;53.47;96090.47;10379144;28;96796;-64
2022/08/31 19:52:50;;;;;;;3.22;2.33;;;;;;;19.96;54.27;96090.69;10379239;28;97175;-63
2022/08/31 19:57:53;;;;;;;2.70;2.25;;;;;;;19.83;55.33;96082.78;10377122;28;97018;-63
2022/08/31 20:02:58;;;;;;;2.80;2.22;;;;;;;19.82;55.52;96091.78;10372356;28;96938;-63
2022/08/31 20:08:01;;;;;;;4.57;2.88;;;;;;;19.79;55.99;96098.28;10364117;28;98485;-63
2022/08/31 20:13:04;;;;;;;11.20;10.03;;;;;;;19.75;55.92;96090.97;10355584;28;97864;-64
2022/08/31 20:18:11;;;;;;;3.55;2.60;;;;;;;19.83;55.87;96088.09;10367494;28;97625;-63
2022/08/31 20:23:16;;;;;;;2.88;2.53;;;;;;;19.83;55.97;96093.41;10362249;28;98801;-63
2022/08/31 20:28:20;;;;;;;;;;;;;;;19.73;55.79;96093.00;10375850;28;97300;-63
2022/08/31 20:33:25;;;;;;;3.17;2.40;;;;;;;19.60;56.31;96096.50;10376613;28;97819;-62
2022/08/31 20:38:38;;;;;;;3.63;2.78;;;;;;;19.49;57.38;96092.66;10385458;28;96920;-62
2022/08/31 20:43:43;;;;;;;2.97;2.67;;;;;;;19.43;57.06;96088.19;10389824;28;97846;-63
2022/08/31 20:54:08;;;;;;;4.40;2.65;;;;;;;19.27;57.26;96088.63;10387653;28;97088;-63
2022/08/31 20:59:10;;;;;;;3.10;2.67;;;;;;;19.18;57.55;96091.47;10356805;28;96793;-63
2022/08/31 21:04:15;;;;;;;3.47;2.90;;;;;;;19.18;58.68;96096.78;10373299;28;98873;-63
2022/08/31 21:09:18;;;;;;;4.18;2.78;;;;;;;19.12;58.56;96092.28;10371655;28;98010;-63
2022/08/31 21:14:21;;;;;;;3.97;2.95;;;;;;;19.01;57.94;96091.06;10368148;28;97305;-62
2022/08/31 21:19:25;;;;;;;3.80;2.97;;;;;;;18.91;58.50;96100.44;10368006;28;96770;-62
2022/08/31 21:24:28;;;;;;;7.50;5.82;;;;;;;18.89;58.76;96098.00;10357032;28;97142;-63
2022/08/31 21:29:32;;;;;;;3.08;2.78;;;;;;;18.83;58.97;96101.44;10366348;28;98588;-63
2022/08/31 21:34:37;;;;;;;4.20;2.73;;;;;;;18.72;59.85;96092.25;10362223;28;97337;-62
2022/08/31 21:39:41;;;;;;;3.00;2.65;;;;;;;18.66;59.86;96090.44;10374756;28;97232;-62
2022/08/31 21:44:44;;;;;;;4.10;2.73;;;;;;;18.56;60.44;96087.38;10380456;28;99148;-62
2022/08/31 21:49:52;;;;;;;3.85;3.22;;;;;;;18.46;60.29;96095.69;10374274;28;96710;-63
2022/08/31 21:54:55;;;;;;;4.32;3.03;;;;;;;18.36;60.83;96093.44;10376756;28;97036;-62
2022/08/31 21:59:58;;;;;;;4.95;3.22;;;;;;;18.22;61.76;96086.47;10381790;28;96816;-63
2022/08/31 22:05:02;;;;;;;4.03;3.40;;;;;;;18.16;61.84;96082.00;10383613;28;97116;-62
2022/08/31 22:10:10;;;;;;;5.10;3.30;;;;;;;18.09;62.04;96093.34;10361270;28;96674;-63
2022/08/31 22:15:15;;;;;;;4.20;3.50;;;;;;;18.06;62.36;96088.47;10383722;28;96822;-62
2022/08/31 22:20:20;;;;;;;;;;;;;;;18.01;61.77;96090.91;10377299;28;96790;-62
2022/08/31 22:25:23;;;;;;;;;;;;;;;17.96;61.09;96088.03;10347754;28;96754;-63
2022/08/31 22:30:26;;;;;;;3.55;3.25;;;;;;;17.92;62.44;96087.59;10379039;28;97453;-63
2022/08/31 22:35:30;;;;;;;4.00;3.10;;;;;;;17.78;62.81;96085.09;10382940;28;96804;-62
2022/08/31 22:40:38;;;;;;;5.70;3.47;;;;;;;17.56;63.39;96079.88;10381386;28;97326;-63
2022/08/31 22:45:43;;;;;;;5.10;3.30;;;;;;;17.36;64.15;96074.50;10376535;28;97577;-63
2022/08/31 22:50:51;;;;;;;4.88;2.83;;;;;;;17.31;64.45;96080.34;10411599;27;96917;-64
2022/08/31 22:55:54;;;;;;;6.95;3.75;;;;;;;17.25;64.67;96086.44;10388751;28;96702;-62
2022/08/31 23:00:57;;;;;;;5.35;3.90;;;;;;;17.21;64.56;96085.16;10382768;28;97201;-63
2022/08/31 23:06:01;;;;;;;5.75;3.50;;;;;;;17.10;65.19;96083.06;10370207;28;96994;-62
2022/08/31 23:11:04;;;;;;;5.77;3.80;;;;;;;17.00;64.93;96083.41;10340963;28;96991;-62
2022/08/31 23:16:08;;;;;;;4.53;3.30;;;;;;;17.03;65.10;96077.75;10341451;28;97502;-62
2022/08/31 23:21:12;;;;;;;4.33;3.47;;;;;;;17.06;64.96;96073.88;10356121;28;96717;-62
2022/08/31 23:26:15;;;;;;;4.73;3.90;;;;;;;17.08;64.89;96069.25;10382151;28;96809;-62
2022/08/31 23:31:18;;;;;;;3.45;3.10;;;;;;;17.07;65.39;96068.41;10381438;28;96713;-62
2022/08/31 23:36:28;;;;;;;5.60;3.33;;;;;;;16.97;65.04;96062.66;10349262;28;97944;-62
2022/08/31 23:41:34;;;;;;;4.18;3.33;;;;;;;16.76;66.05;96060.88;10381816;28;96748;-63
2022/08/31 23:46:42;;;;;;;4.32;3.40;;;;;;;16.60;66.24;96052.19;10413338;28;96832;-62
2022/08/31 23:51:46;;;;;;;4.93;3.33;;;;;;;16.56;66.38;96050.16;10374295;28;96886;-62
2022/08/31 23:56:54;;;;;;;3.97;3.33;;;;;;;16.54;66.13;96055.63;10339877;28;96826;-62
